Time;durP1;ratioP1;P1;durP2;ratioP2;P2;SDS_P1;SDS_P2;PMS_P1;PMS_P2;Temp;Humidity;BMP_temperature;BMP_pressure;BME280_temperature;BME280_humidity;BME280_pressure;Samples;Min_cycle;Max_cycle;Signal;HPM_P1;HPM_P2
2021/05/04 00:02:01;;;;;;;13.35;11.02;;;;;;;;;;6261046;23;20025;-86
2021/05/04 00:04:27;;;;;;;15.38;11.65;;;;;;;;;;6261318;23;20070;-85
2021/05/04 00:06:56;;;;;;;19.65;11.02;;;;;;;;;;6262188;23;20024;-85
2021/05/04 00:09:28;;;;;;;25.48;11.38;;;;;;;;;;6262484;22;20032;-85
2021/05/04 00:11:54;;;;;;;13.45;10.43;;;;;;;;;;6262529;23;20100;-86
2021/05/04 00:14:20;;;;;;;13.65;10.18;;;;;;;;;;6262415;23;20016;-85
2021/05/04 00:17:03;;;;;;;13.93;10.52;;;;;;;;;;6226540;23;20025;-84
2021/05/04 00:19:29;;;;;;;14.70;9.93;;;;;;;;;;6249881;23;20020;-85
2021/05/04 00:21:59;;;;;;;14.57;9.98;;;;;;;;;;6249989;23;20025;-85
2021/05/04 00:24:33;;;;;;;18.27;11.00;;;;;;;;;;6250259;23;20021;-85
2021/05/04 00:27:02;;;;;;;15.27;10.77;;;;;;;;;;6248470;23;20295;-85
2021/05/04 00:29:43;;;;;;;13.57;9.93;;;;;;;;;;6250433;23;20103;-85
2021/05/04 00:32:09;;;;;;;15.23;10.05;;;;;;;;;;6229692;23;20436;-85
2021/05/04 00:34:36;;;;;;;15.25;9.82;;;;;;;;;;6227011;23;20295;-86
2021/05/04 00:37:02;;;;;;;14.55;9.55;;;;;;;;;;6250386;23;20020;-85
2021/05/04 00:39:34;;;;;;;13.70;9.88;;;;;;;;;;6226071;23;20063;-85
2021/05/04 00:42:00;;;;;;;13.27;9.00;;;;;;;;;;6249295;23;20469;-85
2021/05/04 00:44:36;;;;;;;12.70;9.20;;;;;;;;;;6249132;23;20060;-85
2021/05/04 00:47:02;;;;;;;16.55;8.77;;;;;;;;;;6225659;23;20068;-85
2021/05/04 00:49:28;;;;;;;12.73;8.93;;;;;;;;;;6247914;23;20027;-83
2021/05/04 00:51:58;;;;;;;11.23;8.75;;;;;;;;;;6224844;23;20025;-84
2021/05/04 00:54:27;;;;;;;13.07;8.27;;;;;;;;;;6225430;23;20021;-84
2021/05/04 00:56:57;;;;;;;10.70;7.75;;;;;;;;;;6226314;23;20043;-84
2021/05/04 00:59:24;;;;;;;11.70;8.02;;;;;;;;;;6249725;23;20289;-84
2021/05/04 01:01:56;;;;;;;10.98;8.43;;;;;;;;;;6227905;23;20024;-84
2021/05/04 01:04:23;;;;;;;13.57;8.38;;;;;;;;;;6237917;23;20016;-84
2021/05/04 01:06:49;;;;;;;10.55;7.43;;;;;;;;;;6264555;22;20052;-84
2021/05/04 01:09:16;;;;;;;13.52;7.97;;;;;;;;;;6223847;23;20390;-84
2021/05/04 01:12:02;;;;;;;10.27;8.27;;;;;;;;;;6249818;23;20034;-84
2021/05/04 01:14:28;;;;;;;14.00;8.55;;;;;;;;;;6224885;23;20051;-84
2021/05/04 01:16:55;;;;;;;12.63;7.70;;;;;;;;;;6249630;23;20024;-84
2021/05/04 01:19:24;;;;;;;10.75;8.40;;;;;;;;;;6226057;23;20092;-85
2021/05/04 01:21:53;;;;;;;9.18;7.57;;;;;;;;;;6225411;23;20025;-85
2021/05/04 01:24:35;;;;;;;11.77;7.68;;;;;;;;;;6251814;23;20036;-85
2021/05/04 01:27:02;;;;;;;11.88;7.35;;;;;;;;;;6260594;23;20031;-86
2021/05/04 01:29:31;;;;;;;9.25;7.05;;;;;;;;;;6233856;23;20076;-85
2021/05/04 01:31:57;;;;;;;13.73;6.55;;;;;;;;;;6252231;23;20024;-85
2021/05/04 01:34:26;;;;;;;7.93;5.90;;;;;;;;;;6226179;23;20390;-85
2021/05/04 01:36:52;;;;;;;12.23;6.38;;;;;;;;;;6248995;23;20025;-86
2021/05/04 01:39:18;;;;;;;8.65;6.65;;;;;;;;;;6226632;23;20505;-86
2021/05/04 01:41:49;;;;;;;12.60;5.43;;;;;;;;;;6226410;23;20107;-85
2021/05/04 01:44:16;;;;;;;11.00;5.95;;;;;;;;;;6224895;23;20024;-86
2021/05/04 01:46:45;;;;;;;8.73;5.97;;;;;;;;;;6249236;23;20140;-84
2021/05/04 01:49:20;;;;;;;8.25;5.85;;;;;;;;;;6249314;23;20051;-84
2021/05/04 01:51:55;;;;;;;9.88;5.30;;;;;;;;;;6226482;23;20031;-84
2021/05/04 01:54:24;;;;;;;6.50;5.32;;;;;;;;;;6224311;23;20424;-85
2021/05/04 01:56:57;;;;;;;7.72;4.85;;;;;;;;;;6249789;23;20030;-85
2021/05/04 01:59:51;;;;;;;6.75;5.25;;;;;;;;;;6249364;23;20021;-85
2021/05/04 02:02:18;;;;;;;7.43;5.60;;;;;;;;;;6225162;23;20051;-85
2021/05/04 02:04:44;;;;;;;6.88;5.22;;;;;;;;;;6225510;23;20036;-86
2021/05/04 02:07:14;;;;;;;7.07;4.88;;;;;;;;;;6250649;23;20084;-85
2021/05/04 02:09:41;;;;;;;7.28;5.10;;;;;;;;;;6249514;23;20318;-85
2021/05/04 02:12:07;;;;;;;5.35;4.38;;;;;;;;;;6225766;23;20025;-85
2021/05/04 02:14:34;;;;;;;5.78;4.28;;;;;;;;;;6226092;23;20016;-85
2021/05/04 02:17:01;;;;;;;11.18;5.50;;;;;;;;;;6224081;23;20040;-84
2021/05/04 02:19:29;;;;;;;6.55;4.90;;;;;;;;;;6225311;23;20091;-84
2021/05/04 02:21:55;;;;;;;7.88;4.75;;;;;;;;;;6226629;23;20060;-85
2021/05/04 02:24:22;;;;;;;8.18;5.32;;;;;;;;;;6251041;23;20024;-86
2021/05/04 02:26:48;;;;;;;6.85;4.50;;;;;;;;;;6227380;23;20063;-85
2021/05/04 02:29:15;;;;;;;8.50;4.78;;;;;;;;;;6229507;23;20051;-85
2021/05/04 02:31:44;;;;;;;6.13;4.55;;;;;;;;;;6253651;23;20067;-84
2021/05/04 02:34:41;;;;;;;6.57;4.78;;;;;;;;;;6227727;23;20025;-84
2021/05/04 02:37:08;;;;;;;10.70;5.30;;;;;;;;;;6228366;23;20036;-84
2021/05/04 02:39:36;;;;;;;7.70;5.20;;;;;;;;;;6249820;23;20059;-84
2021/05/04 02:42:20;;;;;;;5.35;4.68;;;;;;;;;;6227309;23;20024;-84
2021/05/04 02:44:46;;;;;;;9.30;4.95;;;;;;;;;;6249521;23;20040;-85
2021/05/04 02:47:13;;;;;;;8.60;5.68;;;;;;;;;;6250423;23;20029;-86
2021/05/04 02:49:41;;;;;;;12.38;5.90;;;;;;;;;;6226143;23;20029;-86
2021/05/04 02:52:10;;;;;;;5.90;4.57;;;;;;;;;;6225520;23;20029;-85
2021/05/04 02:54:37;;;;;;;12.02;4.22;;;;;;;;;;6226479;23;20029;-86
2021/05/04 02:57:03;;;;;;;9.60;4.97;;;;;;;;;;6250887;23;20305;-87
2021/05/04 02:59:29;;;;;;;5.03;3.95;;;;;;;;;;6250474;23;20060;-85
2021/05/04 03:02:00;;;;;;;5.25;3.30;;;;;;;;;;6262991;23;20028;-87
2021/05/04 03:04:27;;;;;;;6.15;2.78;;;;;;;;;;6265564;23;20016;-86
2021/05/04 03:06:53;;;;;;;4.25;3.30;;;;;;;;;;6233354;23;20024;-86
2021/05/04 03:09:22;;;;;;;3.60;2.97;;;;;;;;;;6251856;23;20035;-86
2021/05/04 03:11:49;;;;;;;5.88;3.88;;;;;;;;;;6227577;23;20429;-86
2021/05/04 03:14:20;;;;;;;7.72;3.92;;;;;;;;;;6262294;22;20017;-86
2021/05/04 03:16:49;;;;;;;11.02;3.75;;;;;;;;;;6263206;23;20059;-86
2021/05/04 03:19:28;;;;;;;5.72;3.50;;;;;;;;;;6226446;23;20024;-85
2021/05/04 03:21:54;;;;;;;8.45;3.97;;;;;;;;;;6226372;23;20084;-85
2021/05/04 03:24:22;;;;;;;7.50;4.20;;;;;;;;;;6223942;23;20036;-84
2021/05/04 03:26:52;;;;;;;6.63;4.35;;;;;;;;;;6245116;23;20186;-82
2021/05/04 03:29:19;;;;;;;8.27;3.88;;;;;;;;;;6219349;23;20035;-82
2021/05/04 03:31:46;;;;;;;7.38;3.70;;;;;;;;;;6243363;23;20103;-82
2021/05/04 03:34:15;;;;;;;7.78;3.65;;;;;;;;;;6220660;23;20092;-80
2021/05/04 03:36:53;;;;;;;10.82;3.67;;;;;;;;;;6243349;23;20059;-80
2021/05/04 03:39:19;;;;;;;6.63;4.53;;;;;;;;;;6227066;23;20032;-80
2021/05/04 03:41:45;;;;;;;10.25;3.88;;;;;;;;;;6259552;23;20029;-80
2021/05/04 03:44:11;;;;;;;5.72;3.90;;;;;;;;;;6237566;23;20019;-81
2021/05/04 03:46:38;;;;;;;8.55;4.15;;;;;;;;;;6237747;23;20082;-82
2021/05/04 03:49:04;;;;;;;5.47;4.10;;;;;;;;;;6225864;23;20029;-82
2021/05/04 03:51:31;;;;;;;8.82;4.70;;;;;;;;;;6224912;23;20403;-82
2021/05/04 03:53:59;;;;;;;9.10;4.90;;;;;;;;;;6221613;23;20028;-85
2021/05/04 03:56:26;;;;;;;13.18;5.13;;;;;;;;;;6224261;23;20048;-85
2021/05/04 03:58:59;;;;;;;7.35;4.65;;;;;;;;;;6222757;23;20043;-86
2021/05/04 04:01:25;;;;;;;15.30;6.00;;;;;;;;;;6246419;23;20031;-87
2021/05/04 04:03:54;;;;;;;6.68;5.00;;;;;;;;;;6248093;23;20215;-87
2021/05/04 04:06:39;;;;;;;9.25;4.78;;;;;;;;;;6249150;23;20039;-87
2021/05/04 04:09:06;;;;;;;11.05;4.63;;;;;;;;;;6260586;22;20205;-87
2021/05/04 04:11:32;;;;;;;9.18;5.57;;;;;;;;;;6239569;23;20017;-86
2021/05/04 04:14:00;;;;;;;13.00;5.25;;;;;;;;;;6226722;23;20028;-85
2021/05/04 04:16:34;;;;;;;9.77;4.85;;;;;;;;;;6224307;23;20031;-84
2021/05/04 04:19:03;;;;;;;8.23;5.38;;;;;;;;;;6225079;23;20024;-86
2021/05/04 04:21:41;;;;;;;8.82;5.05;;;;;;;;;;6225635;23;20059;-87
2021/05/04 04:24:07;;;;;;;8.38;5.43;;;;;;;;;;6248515;23;20107;-87
2021/05/04 04:26:35;;;;;;;5.65;5.13;;;;;;;;;;6223692;23;20261;-87
2021/05/04 04:29:04;;;;;;;6.57;4.43;;;;;;;;;;6224841;23;20040;-86
2021/05/04 04:31:34;;;;;;;11.20;5.18;;;;;;;;;;6221560;23;20029;-84
2021/05/04 04:34:00;;;;;;;7.50;5.13;;;;;;;;;;6245722;23;20028;-87
2021/05/04 04:36:29;;;;;;;10.75;5.72;;;;;;;;;;6246474;23;20025;-87
2021/05/04 04:39:07;;;;;;;13.73;5.15;;;;;;;;;;6244590;23;20025;-87
2021/05/04 04:41:35;;;;;;;8.40;5.32;;;;;;;;;;6244974;23;20028;-84
2021/05/04 04:44:12;;;;;;;6.95;5.30;;;;;;;;;;6218975;23;20041;-83
2021/05/04 04:46:40;;;;;;;6.68;5.07;;;;;;;;;;6225687;23;20055;-84
2021/05/04 04:49:08;;;;;;;6.75;5.30;;;;;;;;;;6244636;23;20076;-82
2021/05/04 04:51:34;;;;;;;17.63;5.32;;;;;;;;;;6217905;23;20391;-83
2021/05/04 04:54:04;;;;;;;9.32;6.05;;;;;;;;;;6240625;23;20186;-83
2021/05/04 04:56:30;;;;;;;8.63;4.80;;;;;;;;;;6218085;23;20020;-82
2021/05/04 04:58:58;;;;;;;12.25;5.18;;;;;;;;;;6240170;23;20083;-82
2021/05/04 05:01:30;;;;;;;8.80;4.95;;;;;;;;;;6215068;23;20283;-81
2021/05/04 05:03:56;;;;;;;16.25;7.00;;;;;;;;;;6215283;23;20024;-83
2021/05/04 05:06:34;;;;;;;6.30;4.28;;;;;;;;;;6216259;23;20209;-83
2021/05/04 05:09:02;;;;;;;9.63;4.15;;;;;;;;;;6216466;23;20091;-84
2021/05/04 05:11:28;;;;;;;14.98;4.53;;;;;;;;;;6243165;23;20024;-83
2021/05/04 05:13:57;;;;;;;8.63;4.53;;;;;;;;;;6215959;23;20024;-84
2021/05/04 05:16:23;;;;;;;13.80;5.85;;;;;;;;;;6217502;23;20069;-83
2021/05/04 05:18:52;;;;;;;6.22;3.78;;;;;;;;;;6241097;23;20025;-83
2021/05/04 05:21:21;;;;;;;10.43;4.07;;;;;;;;;;6244631;23;20024;-84
2021/05/04 05:24:09;;;;;;;13.13;4.72;;;;;;;;;;6247599;23;20187;-85
2021/05/04 05:26:35;;;;;;;6.57;4.03;;;;;;;;;;6220723;23;20083;-86
2021/05/04 05:29:02;;;;;;;6.43;4.20;;;;;;;;;;6242245;23;20024;-84
2021/05/04 05:31:31;;;;;;;4.50;3.67;;;;;;;;;;6237947;23;20453;-83
2021/05/04 05:33:58;;;;;;;7.90;3.50;;;;;;;;;;6213083;23;20032;-84
2021/05/04 05:36:33;;;;;;;9.35;3.63;;;;;;;;;;6216082;23;20055;-86
2021/05/04 05:39:00;;;;;;;10.15;3.67;;;;;;;;;;6218816;23;20028;-84
2021/05/04 05:41:26;;;;;;;9.50;3.35;;;;;;;;;;6215673;23;20020;-85
2021/05/04 05:43:53;;;;;;;4.60;3.20;;;;;;;;;;6240038;23;20082;-85
2021/05/04 05:46:30;;;;;;;10.23;4.55;;;;;;;;;;6216409;23;20032;-85
2021/05/04 05:49:00;;;;;;;4.57;2.65;;;;;;;;;;6217300;23;20016;-84
2021/05/04 05:51:30;;;;;;;10.45;3.03;;;;;;;;;;6217505;23;20149;-84
2021/05/04 05:53:57;;;;;;;7.88;2.83;;;;;;;;;;6220061;23;20028;-85
2021/05/04 05:56:26;;;;;;;9.25;3.42;;;;;;;;;;6249177;23;20067;-84
2021/05/04 05:58:55;;;;;;;4.63;2.65;;;;;;;;;;6248943;23;20044;-85
2021/05/04 06:01:23;;;;;;;3.60;2.78;;;;;;;;;;6219514;23;20020;-83
2021/05/04 06:03:49;;;;;;;3.13;2.60;;;;;;;;;;6245054;23;20100;-84
2021/05/04 06:06:18;;;;;;;7.72;2.90;;;;;;;;;;6215049;23;20032;-84
2021/05/04 06:08:50;;;;;;;7.00;2.70;;;;;;;;;;6218025;23;20025;-83
2021/05/04 06:11:17;;;;;;;4.45;3.05;;;;;;;;;;6239166;23;20182;-84
2021/05/04 06:13:44;;;;;;;4.97;2.58;;;;;;;;;;6237048;23;20024;-84
2021/05/04 06:16:16;;;;;;;5.03;2.80;;;;;;;;;;6239379;23;20031;-85
2021/05/04 06:18:43;;;;;;;9.95;2.75;;;;;;;;;;6213223;23;20413;-85
2021/05/04 06:21:09;;;;;;;2.83;2.50;;;;;;;;;;6215632;23;20035;-85
2021/05/04 06:23:45;;;;;;;6.15;2.45;;;;;;;;;;6236931;23;20051;-85
2021/05/04 06:26:13;;;;;;;4.05;2.63;;;;;;;;;;6239275;23;20029;-85
2021/05/04 06:28:46;;;;;;;3.50;2.50;;;;;;;;;;6239427;23;20377;-84
2021/05/04 06:31:15;;;;;;;10.40;3.78;;;;;;;;;;6257484;22;20025;-84
2021/05/04 06:33:42;;;;;;;4.63;3.00;;;;;;;;;;6233412;23;20040;-84
2021/05/04 06:36:09;;;;;;;6.03;2.33;;;;;;;;;;6245790;23;20040;-84
2021/05/04 06:38:38;;;;;;;8.27;2.72;;;;;;;;;;6216516;23;20083;-84
2021/05/04 06:41:07;;;;;;;6.47;2.50;;;;;;;;;;6243214;23;20024;-84
2021/05/04 06:43:40;;;;;;;6.85;3.05;;;;;;;;;;6231669;22;20064;-84
2021/05/04 06:46:06;;;;;;;4.50;2.83;;;;;;;;;;6227638;23;20087;-84
2021/05/04 06:48:33;;;;;;;3.85;2.72;;;;;;;;;;6240396;23;20044;-84
2021/05/04 06:51:03;;;;;;;4.53;2.53;;;;;;;;;;6239986;23;20035;-85
2021/05/04 06:53:30;;;;;;;6.00;3.60;;;;;;;;;;6216950;23;20025;-84
2021/05/04 06:55:58;;;;;;;4.63;2.95;;;;;;;;;;6239120;23;20261;-84
2021/05/04 06:58:25;;;;;;;3.63;3.08;;;;;;;;;;6241538;23;20028;-85
2021/05/04 07:00:54;;;;;;;6.22;3.17;;;;;;;;;;6238722;23;20200;-83
2021/05/04 07:03:21;;;;;;;6.10;3.30;;;;;;;;;;6238172;23;20025;-84
2021/05/04 07:05:57;;;;;;;4.45;3.10;;;;;;;;;;6213260;23;20088;-84
2021/05/04 07:08:23;;;;;;;7.88;3.88;;;;;;;;;;6238510;23;20452;-83
2021/05/04 07:10:49;;;;;;;4.68;3.30;;;;;;;;;;6218376;23;20025;-82
2021/05/04 07:13:28;;;;;;;5.57;3.05;;;;;;;;;;6255093;22;20012;-82
2021/05/04 07:15:54;;;;;;;5.38;3.92;;;;;;;;;;6225676;23;20031;-83
2021/05/04 07:18:23;;;;;;;5.68;3.83;;;;;;;;;;6242261;23;20112;-84
2021/05/04 07:20:52;;;;;;;5.25;4.20;;;;;;;;;;6241849;23;20052;-84
2021/05/04 07:23:19;;;;;;;6.03;4.05;;;;;;;;;;6238658;23;20028;-82
2021/05/04 07:25:48;;;;;;;5.47;3.78;;;;;;;;;;6213400;23;20097;-82
2021/05/04 07:28:15;;;;;;;4.00;3.17;;;;;;;;;;6240990;23;20024;-83
2021/05/04 07:30:43;;;;;;;4.13;3.20;;;;;;;;;;6237066;23;20024;-84
2021/05/04 07:33:09;;;;;;;11.13;3.20;;;;;;;;;;6211891;23;20028;-84
2021/05/04 07:35:39;;;;;;;4.25;2.53;;;;;;;;;;6214638;23;20063;-83
2021/05/04 07:38:08;;;;;;;4.47;2.85;;;;;;;;;;6241352;23;20273;-83
2021/05/04 07:40:38;;;;;;;4.43;3.50;;;;;;;;;;6216577;23;20284;-84
2021/05/04 07:43:06;;;;;;;4.82;3.10;;;;;;;;;;6241909;23;20060;-83
2021/05/04 07:45:39;;;;;;;6.28;3.13;;;;;;;;;;6216080;23;20036;-85
2021/05/04 07:48:08;;;;;;;4.88;3.30;;;;;;;;;;6220129;23;20035;-84
2021/05/04 07:50:34;;;;;;;6.63;3.78;;;;;;;;;;6245953;23;20021;-84
2021/05/04 07:53:01;;;;;;;10.95;3.45;;;;;;;;;;6222521;23;20044;-84
2021/05/04 07:55:28;;;;;;;6.30;4.13;;;;;;;;;;6215751;23;20044;-81
2021/05/04 07:57:55;;;;;;;6.93;3.95;;;;;;;;;;6237883;23;20488;-83
2021/05/04 08:00:22;;;;;;;4.72;4.18;;;;;;;;;;6235980;23;20028;-82
2021/05/04 08:02:50;;;;;;;6.97;4.10;;;;;;;;;;6239444;23;20177;-83
2021/05/04 08:05:16;;;;;;;7.95;5.00;;;;;;;;;;6239706;23;20025;-82
2021/05/04 08:07:42;;;;;;;7.82;5.30;;;;;;;;;;6216491;23;20106;-84
2021/05/04 08:10:09;;;;;;;5.70;5.00;;;;;;;;;;6217094;23;20091;-85
2021/05/04 08:12:36;;;;;;;6.85;5.28;;;;;;;;;;6246776;23;20044;-89
2021/05/04 08:15:04;;;;;;;5.85;5.15;;;;;;;;;;6226761;23;19996;-89
2021/05/04 08:17:37;;;;;;;6.10;5.38;;;;;;;;;;6251525;23;20039;-88
2021/05/04 08:20:05;;;;;;;10.27;5.40;;;;;;;;;;6225359;23;20072;-87
2021/05/04 08:22:31;;;;;;;10.65;5.25;;;;;;;;;;6250612;23;20052;-87
2021/05/04 08:25:01;;;;;;;7.95;5.03;;;;;;;;;;6220975;23;20028;-85
2021/05/04 08:27:28;;;;;;;9.07;5.10;;;;;;;;;;6242912;23;20198;-83
2021/05/04 08:29:54;;;;;;;4.95;4.20;;;;;;;;;;6239659;23;20039;-83
2021/05/04 08:32:21;;;;;;;6.03;3.72;;;;;;;;;;6240392;23;20448;-82
2021/05/04 08:34:51;;;;;;;3.55;3.22;;;;;;;;;;6212172;23;20028;-83
2021/05/04 08:37:17;;;;;;;3.33;3.03;;;;;;;;;;6237551;23;20300;-83
2021/05/04 08:39:43;;;;;;;5.85;2.72;;;;;;;;;;6212102;23;20100;-82
2021/05/04 08:42:27;;;;;;;3.00;2.58;;;;;;;;;;6234817;23;20098;-82
2021/05/04 08:44:53;;;;;;;5.97;2.60;;;;;;;;;;6237219;23;20108;-82
2021/05/04 08:47:20;;;;;;;4.65;2.88;;;;;;;;;;6246133;23;20029;-83
2021/05/04 08:50:06;;;;;;;3.08;2.40;;;;;;;;;;6215811;23;20087;-83
2021/05/04 08:52:34;;;;;;;2.70;2.50;;;;;;;;;;6239203;23;20460;-83
2021/05/04 08:55:00;;;;;;;3.28;2.80;;;;;;;;;;6240799;23;20267;-85
2021/05/04 08:57:35;;;;;;;3.08;2.50;;;;;;;;;;6218137;23;20020;-84
2021/05/04 09:00:10;;;;;;;4.28;2.75;;;;;;;;;;6253421;23;20004;-85
2021/05/04 09:02:59;;;;;;;4.00;2.55;;;;;;;;;;6233731;23;20076;-84
2021/05/04 09:05:34;;;;;;;5.97;3.92;;;;;;;;;;6230722;23;20021;-84
2021/05/04 09:08:05;;;;;;;3.20;2.72;;;;;;;;;;6227798;23;20121;-84
2021/05/04 09:10:39;;;;;;;5.55;3.55;;;;;;;;;;6222343;23;20025;-84
2021/05/04 09:13:30;;;;;;;8.52;3.83;;;;;;;;;;6240192;23;20272;-83
2021/05/04 09:16:19;;;;;;;4.50;4.10;;;;;;;;;;6240937;23;20029;-84
2021/05/04 09:19:18;;;;;;;5.90;4.50;;;;;;;;;;6244981;23;20025;-88
2021/05/04 09:22:04;;;;;;;;;;;;;;;;;;;;;
2021/05/04 09:24:43;;;;;;;5.53;3.92;;;;;;;;;;6223993;23;20055;-87
2021/05/04 09:27:17;;;;;;;4.65;4.25;;;;;;;;;;6246331;23;20070;-89
2021/05/04 09:29:51;;;;;;;4.50;3.00;;;;;;;;;;6246325;23;20080;-88
2021/05/04 09:32:27;;;;;;;4.03;3.03;;;;;;;;;;6240555;23;20052;-87
2021/05/04 09:35:05;;;;;;;6.75;2.97;;;;;;;;;;6232425;23;20035;-87
2021/05/04 09:37:40;;;;;;;3.03;2.30;;;;;;;;;;6256035;22;20013;-87
2021/05/04 09:40:22;;;;;;;3.45;2.28;;;;;;;;;;6234204;22;20089;-86
2021/05/04 09:43:01;;;;;;;3.50;2.30;;;;;;;;;;6233832;23;20012;-84
2021/05/04 09:45:27;;;;;;;2.38;2.17;;;;;;;;;;6231814;23;20072;-83
2021/05/04 09:48:10;;;;;;;6.43;2.35;;;;;;;;;;6253675;22;20208;-83
2021/05/04 09:51:01;;;;;;;2.92;2.42;;;;;;;;;;6254280;22;20078;-83
2021/05/04 09:53:36;;;;;;;6.22;3.28;;;;;;;;;;6231061;23;20065;-84
2021/05/04 09:56:02;;;;;;;5.13;3.43;;;;;;;;;;6229880;23;20074;-84
2021/05/04 10:01:24;;;;;;;3.10;1.98;;;;;;;;;;6219059;23;20444;-87
2021/05/04 10:03:52;;;;;;;6.43;1.90;;;;;;;;;;6246664;23;20017;-85
2021/05/04 10:06:29;;;;;;;2.63;1.88;;;;;;;;;;6227965;23;20023;-85
2021/05/04 10:09:12;;;;;;;;;;;;;;;;;;;;;
2021/05/04 10:11:58;;;;;;;5.15;1.98;;;;;;;;;;6221922;23;19904;-86
2021/05/04 10:14:25;;;;;;;8.18;2.40;;;;;;;;;;6242950;23;20451;-86
2021/05/04 10:16:54;;;;;;;5.53;1.90;;;;;;;;;;6254525;22;20178;-85
2021/05/04 10:19:20;;;;;;;7.20;1.60;;;;;;;;;;6251882;22;20103;-85
2021/05/04 10:21:47;;;;;;;4.85;1.50;;;;;;;;;;6216408;23;20025;-86
2021/05/04 10:24:14;;;;;;;4.18;2.13;;;;;;;;;;6246774;23;20062;-85
2021/05/04 10:26:42;;;;;;;4.28;1.33;;;;;;;;;;6221624;23;20373;-85
2021/05/04 10:29:10;;;;;;;2.63;1.15;;;;;;;;;;6243267;23;20446;-85
2021/05/04 10:31:41;;;;;;;3.65;1.65;;;;;;;;;;6219129;23;20285;-85
2021/05/04 10:34:24;;;;;;;5.65;1.20;;;;;;;;;;6214103;23;20402;-84
2021/05/04 10:36:59;;;;;;;2.47;1.10;;;;;;;;;;6217140;23;20028;-85
2021/05/04 10:39:36;;;;;;;2.78;0.85;;;;;;;;;;6219164;23;20032;-85
2021/05/04 10:42:05;;;;;;;1.83;1.10;;;;;;;;;;6241939;23;20085;-86
2021/05/04 10:44:50;;;;;;;2.30;1.05;;;;;;;;;;6244264;23;20294;-86
2021/05/04 10:47:37;;;;;;;3.67;1.00;;;;;;;;;;6217883;23;20028;-84
2021/05/04 10:50:08;;;;;;;4.57;1.13;;;;;;;;;;6214566;23;20052;-85
2021/05/04 10:52:55;;;;;;;3.25;1.48;;;;;;;;;;6242237;23;20073;-86
2021/05/04 10:55:22;;;;;;;5.45;1.10;;;;;;;;;;6217962;23;20028;-86
2021/05/04 10:58:09;;;;;;;1.63;0.80;;;;;;;;;;6246953;23;20040;-85
2021/05/04 11:01:06;;;;;;;2.33;1.08;;;;;;;;;;6247455;23;20020;-86
2021/05/04 11:03:35;;;;;;;5.50;1.60;;;;;;;;;;6221725;23;20044;-84
2021/05/04 11:06:02;;;;;;;4.32;1.63;;;;;;;;;;6249775;23;20036;-87
2021/05/04 11:08:48;;;;;;;5.07;1.65;;;;;;;;;;6248327;23;20035;-86
2021/05/04 11:11:29;;;;;;;4.90;1.42;;;;;;;;;;6248416;23;20106;-88
2021/05/04 11:14:06;;;;;;;2.90;1.50;;;;;;;;;;6250593;23;20402;-86
2021/05/04 11:16:36;;;;;;;3.20;1.60;;;;;;;;;;6248344;23;20024;-88
2021/05/04 11:19:06;;;;;;;8.05;1.98;;;;;;;;;;6250565;23;20032;-85
2021/05/04 11:22:05;;;;;;;4.00;1.33;;;;;;;;;;6252028;23;20032;-86
2021/05/04 11:24:46;;;;;;;5.25;1.75;;;;;;;;;;6227819;23;20031;-86
2021/05/04 11:27:33;;;;;;;6.70;1.88;;;;;;;;;;6251631;23;20032;-86
2021/05/04 11:30:03;;;;;;;5.00;2.25;;;;;;;;;;6249295;23;20384;-86
2021/05/04 11:32:44;;;;;;;6.10;1.98;;;;;;;;;;6246595;23;20083;-86
2021/05/04 11:35:18;;;;;;;9.88;1.85;;;;;;;;;;6221601;23;20142;-86
2021/05/04 11:37:49;;;;;;;6.32;2.28;;;;;;;;;;6242614;23;20025;-86
2021/05/04 11:40:24;;;;;;;4.38;1.95;;;;;;;;;;6220003;23;20028;-87
2021/05/04 11:43:03;;;;;;;6.32;2.17;;;;;;;;;;6241943;23;20070;-85
2021/05/04 11:45:34;;;;;;;8.00;2.50;;;;;;;;;;6248385;23;20055;-86
2021/05/04 11:48:02;;;;;;;13.60;3.08;;;;;;;;;;6251144;23;20015;-85
2021/05/04 11:50:54;;;;;;;5.20;2.55;;;;;;;;;;6250065;23;20020;-85
2021/05/04 11:53:20;;;;;;;4.65;2.42;;;;;;;;;;6227183;23;20017;-86
2021/05/04 11:55:53;;;;;;;7.68;2.85;;;;;;;;;;6230301;23;20051;-85
2021/05/04 11:58:33;;;;;;;7.38;2.90;;;;;;;;;;6255493;23;20004;-86
2021/05/04 12:01:05;;;;;;;7.53;3.35;;;;;;;;;;6251508;23;20051;-85
2021/05/04 12:03:32;;;;;;;6.32;2.85;;;;;;;;;;6249706;23;20024;-86
2021/05/04 12:06:00;;;;;;;8.07;2.53;;;;;;;;;;6250583;23;20615;-87
2021/05/04 12:08:37;;;;;;;6.55;2.80;;;;;;;;;;6224994;23;20399;-85
2021/05/04 12:11:06;;;;;;;6.22;2.55;;;;;;;;;;6248060;23;20055;-83
2021/05/04 12:13:41;;;;;;;7.05;2.83;;;;;;;;;;6219967;23;20055;-82
2021/05/04 12:16:08;;;;;;;4.85;1.75;;;;;;;;;;6243217;23;20060;-83
2021/05/04 12:18:37;;;;;;;4.88;1.80;;;;;;;;;;6246314;23;20289;-85
2021/05/04 12:21:13;;;;;;;3.13;1.27;;;;;;;;;;6247210;23;20025;-88
2021/05/04 12:23:47;;;;;;;8.77;1.80;;;;;;;;;;6247536;23;20052;-87
2021/05/04 12:26:18;;;;;;;4.88;1.70;;;;;;;;;;6242159;23;20526;-83
2021/05/04 12:28:48;;;;;;;4.55;1.50;;;;;;;;;;6217207;23;20028;-82
2021/05/04 12:31:18;;;;;;;2.17;1.40;;;;;;;;;;6216704;23;20016;-83
2021/05/04 12:33:46;;;;;;;5.60;1.73;;;;;;;;;;6217704;23;20029;-84
2021/05/04 12:36:19;;;;;;;4.10;1.90;;;;;;;;;;6217686;23;20608;-85
2021/05/04 12:38:57;;;;;;;2.60;0.90;;;;;;;;;;6215088;23;20029;-85
2021/05/04 12:41:31;;;;;;;4.28;1.73;;;;;;;;;;6239881;23;20125;-85
2021/05/04 12:44:07;;;;;;;2.22;1.33;;;;;;;;;;6241928;23;20090;-85
2021/05/04 12:46:45;;;;;;;2.95;1.50;;;;;;;;;;6217792;23;20107;-85
2021/05/04 12:49:11;;;;;;;4.28;1.60;;;;;;;;;;6239985;23;20317;-84
2021/05/04 12:51:48;;;;;;;5.05;1.42;;;;;;;;;;6219368;23;20371;-86
2021/05/04 12:54:27;;;;;;;3.38;1.45;;;;;;;;;;6243548;23;20024;-85
2021/05/04 12:56:54;;;;;;;3.67;1.20;;;;;;;;;;6242790;23;20115;-85
2021/05/04 12:59:32;;;;;;;2.58;1.30;;;;;;;;;;6244058;23;20025;-85
2021/05/04 13:02:05;;;;;;;6.55;1.27;;;;;;;;;;6220317;23;20024;-84
2021/05/04 13:07:24;;;;;;;5.18;1.40;;;;;;;;;;6218057;23;20039;-84
2021/05/04 13:13:26;;;;;;;3.85;1.05;;;;;;;;;;6217992;23;20064;-84
2021/05/04 13:30:40;;;;;;;4.97;1.50;;;;;;;;;;6221838;23;20176;-85
2021/05/04 13:33:20;;;;;;;4.38;1.20;;;;;;;;;;6230068;23;20052;-85
2021/05/04 13:35:58;;;;;;;3.22;1.27;;;;;;;;;;6232259;22;20012;-85
2021/05/04 13:49:38;;;;;;;7.13;1.20;;;;;;;;;;6221081;23;20236;-86
2021/05/04 13:52:07;;;;;;;5.15;0.90;;;;;;;;;;6243712;23;20132;-85
2021/05/04 13:54:43;;;;;;;3.25;0.90;;;;;;;;;;6246795;23;20020;-86
2021/05/04 13:57:33;;;;;;;6.53;1.45;;;;;;;;;;6221498;23;20021;-86
2021/05/04 14:00:01;;;;;;;6.45;1.23;;;;;;;;;;6239382;23;20048;-85
2021/05/04 14:26:55;;;;;;;1.92;0.98;;;;;;;;;;6224772;23;20036;-85
2021/05/04 14:29:21;;;;;;;3.95;1.23;;;;;;;;;;6240473;23;20021;-83
2021/05/04 14:31:50;;;;;;;3.40;1.33;;;;;;;;;;6238320;23;20024;-83
2021/05/04 14:34:18;;;;;;;3.80;0.90;;;;;;;;;;6215238;23;20080;-82
2021/05/04 14:37:02;;;;;;;4.93;1.40;;;;;;;;;;6240191;23;20009;-84
2021/05/04 14:44:49;;;;;;;1.35;1.10;;;;;;;;;;6223192;23;20024;-85
2021/05/04 15:03:29;;;;;;;5.40;1.30;;;;;;;;;;6226210;23;20013;-87
2021/05/04 15:05:57;;;;;;;3.15;1.50;;;;;;;;;;6249799;23;20044;-87
2021/05/04 15:08:28;;;;;;;3.92;1.55;;;;;;;;;;6231491;23;20210;-87
2021/05/04 15:11:09;;;;;;;6.07;1.52;;;;;;;;;;6230234;23;20136;-88
2021/05/04 15:14:25;;;;;;;3.03;1.15;;;;;;;;;;6228889;23;20032;-88
2021/05/04 15:17:30;;;;;;;8.80;1.48;;;;;;;;;;6225899;23;20103;-86
2021/05/04 15:22:33;;;;;;;4.47;1.40;;;;;;;;;;6217353;23;20209;-87
2021/05/04 15:25:03;;;;;;;3.88;1.55;;;;;;;;;;6220629;23;20028;-89
2021/05/04 15:27:29;;;;;;;4.13;1.35;;;;;;;;;;6215641;23;20037;-87
2021/05/04 15:29:56;;;;;;;7.15;1.63;;;;;;;;;;6221400;23;20028;-89
2021/05/04 15:32:30;;;;;;;3.65;1.80;;;;;;;;;;6245798;23;20169;-89
2021/05/04 15:35:01;;;;;;;4.75;1.60;;;;;;;;;;6217538;23;20074;-88
2021/05/04 15:37:27;;;;;;;6.45;1.60;;;;;;;;;;6181827;23;20069;-89
2021/05/04 15:40:16;;;;;;;2.70;1.55;;;;;;;;;;6219791;23;20024;-89
2021/05/04 15:42:42;;;;;;;3.88;1.60;;;;;;;;;;6218427;23;20024;-87
2021/05/04 15:45:08;;;;;;;2.13;1.40;;;;;;;;;;6246028;23;20039;-87
2021/05/04 15:50:21;;;;;;;10.63;1.80;;;;;;;;;;6221522;23;20056;-87
2021/05/04 16:01:45;;;;;;;2.00;1.80;;;;;;;;;;6221831;23;20237;-88
2021/05/04 16:06:58;;;;;;;2.00;1.27;;;;;;;;;;6215084;23;20317;-88
2021/05/04 16:09:27;;;;;;;6.03;2.53;;;;;;;;;;6242166;23;20020;-89
2021/05/04 16:11:59;;;;;;;2.40;1.13;;;;;;;;;;6246588;23;20032;-89
2021/05/04 16:14:38;;;;;;;1.20;1.10;;;;;;;;;;6243098;23;20398;-87
2021/05/04 16:17:05;;;;;;;2.40;1.02;;;;;;;;;;6246436;23;20536;-89
2021/05/04 16:19:38;;;;;;;2.10;1.05;;;;;;;;;;6242732;23;20020;-89
2021/05/04 16:22:22;;;;;;;2.83;1.17;;;;;;;;;;6208553;23;20036;-89
2021/05/04 16:25:02;;;;;;;4.32;1.63;;;;;;;;;;6243603;23;20025;-89
2021/05/04 16:27:40;;;;;;;3.17;1.40;;;;;;;;;;6246361;23;20024;-89
2021/05/04 16:30:09;;;;;;;4.03;1.30;;;;;;;;;;6218089;23;20025;-89
2021/05/04 16:32:36;;;;;;;2.97;1.20;;;;;;;;;;6219977;23;20171;-88
2021/05/04 16:35:05;;;;;;;2.58;1.10;;;;;;;;;;6218403;23;20424;-89
2021/05/04 16:37:32;;;;;;;3.30;1.13;;;;;;;;;;6220119;23;20153;-89
2021/05/04 16:39:58;;;;;;;1.55;1.17;;;;;;;;;;6242092;23;20048;-89
2021/05/04 16:42:31;;;;;;;4.38;1.50;;;;;;;;;;6217385;23;20059;-90
2021/05/04 16:44:56;;;;;;;3.97;1.60;;;;;;;;;;6218579;23;20079;-88
2021/05/04 16:47:23;;;;;;;4.85;1.50;;;;;;;;;;6252385;22;20012;-88